Date,TemperatureHighF,TemperatureAvgF,TemperatureLowF,DewpointHighF,DewpointAvgF,DewpointLowF,HumidityHigh,HumidityAvg,HumidityLow,PressureMaxIn,PressureMinIn,WindSpeedMaxMPH,WindSpeedAvgMPH,GustSpeedMaxMPH,PrecipitationSumIn
2014-1-1,66.0,54.8,46.2,58.3,51.1,42.8,98,88,44,30.15,30.03,12,3,13,0.00
2014-1-2,63.7,56.1,49.8,59.1,52.1,45.6,96,87,67,30.10,29.99,15,1,15,0.00
2014-1-3,58.8,53.9,47.8,54.6,50.6,42.1,96,89,63,30.05,29.93,10,1,10,0.00
2014-1-4,61.8,56.0,49.8,57.0,53.5,48.7,98,91,82,30.03,29.95,11,2,12,0.01
2014-1-5,69.0,57.5,46.4,57.9,44.8,21.6,99,69,23,30.15,30.03,13,4,13,0.01
2014-1-6,72.7,62.4,54.5,54.8,31.6,10.5,71,33,12,30.20,30.09,12,2,12,0.00
2014-1-7,64.6,58.0,50.9,54.3,41.2,25.7,91,56,31,30.15,30.05,9,3,12,0.00
2014-1-8,60.7,55.7,48.4,55.9,52.8,47.3,98,90,82,30.14,30.03,9,3,11,0.00
2014-1-9,60.1,55.4,51.4,54.6,52.0,48.9,95,88,79,30.11,29.99,13,3,13,0.00
2014-1-10,61.9,55.4,47.9,56.9,52.5,46.1,97,90,81,30.15,30.04,11,3,11,0.01
2014-1-11,64.3,56.9,49.9,58.2,52.6,45.3,92,86,72,30.17,30.05,11,3,11,0.00
2014-1-12,62.5,56.2,50.8,57.6,53.5,47.8,98,91,73,30.17,30.05,12,3,12,0.00
2014-1-13,74.9,63.1,55.5,48.6,31.2,20.2,73,33,13,30.31,30.14,12,4,12,0.00
2014-1-14,85.4,70.6,58.2,52.9,23.2,11.9,49,19,7,30.31,30.17,20,3,21,0.00
2014-1-15,78.9,72.2,63.7,51.9,26.5,15.8,47,19,12,30.22,30.09,10,2,12,0.00
2014-1-16,76.0,68.6,57.5,53.3,31.4,12.7,58,27,10,30.13,30.02,12,2,13,0.00
2014-1-17,79.4,68.4,59.9,48.8,26.7,12.9,43,22,9,30.12,30.02,11,3,12,0.00
2014-1-18,73.1,61.9,53.9,52.3,31.8,19.8,66,33,17,30.11,30.00,12,2,12,0.00
2014-1-19,68.9,61.7,54.9,53.8,36.0,23.0,64,39,23,30.13,30.04,12,2,13,0.00
2014-1-20,64.8,58.9,52.1,57.4,43.3,28.4,87,57,36,30.17,30.07,11,2,13,0.00
2014-1-21,68.4,61.5,53.8,58.1,48.3,36.5,83,63,39,30.16,30.05,12,2,14,0.00
2014-1-22,63.8,58.0,52.4,57.4,53.0,43.3,96,84,50,30.07,29.91,13,2,13,0.00
2014-1-23,60.3,54.2,46.0,55.2,52.0,45.5,98,92,81,30.10,29.91,12,3,14,0.00
2014-1-24,65.4,59.6,53.9,56.8,52.6,48.3,93,78,61,30.23,30.09,11,2,11,0.00
2014-1-25,65.9,61.7,55.2,60.5,53.0,44.5,89,74,47,30.22,30.12,13,3,14,0.00
2014-1-26,63.9,58.5,51.8,57.2,51.8,45.7,91,79,52,30.16,30.02,10,2,11,0.00
2014-1-27,63.9,58.6,52.2,58.8,54.5,49.5,94,87,79,30.12,30.01,9,2,10,0.00
2014-1-28,60.7,57.8,54.3,57.6,56.0,53.7,98,94,88,30.15,30.04,6,2,6,0.00
2014-1-29,57.7,57.0,55.5,56.4,55.5,53.8,96,95,94,29.99,29.97,12,4,12,0.00
2014-1-30,60.0,57.6,55.0,57.9,55.2,52.1,95,92,87,29.98,29.89,13,4,13,0.00
2014-1-31,60.9,57.4,51.0,54.5,50.0,35.0,88,77,47,30.00,29.90,15,5,16,0.00
2014-2-1,61.6,54.0,45.6,48.6,42.8,38.1,84,67,45,30.07,29.96,17,5,21,0.00
2014-2-2,60.9,54.1,45.3,53.4,42.7,23.2,87,67,35,30.11,29.96,15,4,16,0.00
2014-2-3,58.9,53.2,46.8,50.9,46.6,43.1,91,79,65,30.00,29.90,13,4,16,0.11
2014-2-4,60.6,54.2,48.5,51.8,47.1,43.6,85,77,66,30.10,30.00,13,5,13,0.00
2014-2-5,60.4,54.4,47.8,51.0,47.3,42.4,86,77,65,30.15,30.02,11,4,11,0.00
2014-2-6,62.1,55.1,51.0,54.8,50.6,45.9,96,85,74,30.09,30.00,14,4,17,0.23
2014-2-7,61.7,56.2,52.6,54.8,52.6,50.7,98,88,71,30.23,30.03,9,3,11,0.04
2014-2-8,61.7,56.5,50.4,55.0,52.5,48.3,94,87,73,30.29,30.20,16,4,18,0.00
2014-2-9,62.9,57.6,55.3,57.5,53.8,52.4,91,87,78,30.24,30.12,11,2,12,0.00
2014-2-10,63.5,57.6,52.7,57.9,54.4,50.5,96,89,77,30.16,30.03,9,3,10,0.00
2014-2-11,60.2,55.2,51.6,58.1,54.2,51.1,99,96,91,30.11,30.03,10,2,12,0.01
2014-2-12,67.9,60.6,52.4,59.7,54.1,47.9,95,80,60,30.15,30.04,12,2,14,0.00
2014-2-13,66.6,60.9,53.9,61.1,53.7,42.3,91,77,54,30.09,29.98,9,1,11,0.00
2014-2-14,65.1,58.0,52.6,60.2,53.7,45.4,96,85,74,30.07,29.96,10,2,10,0.00
2014-2-15,68.6,59.2,52.0,59.7,54.0,46.0,96,83,68,30.05,29.94,10,1,12,0.00
2014-2-16,64.5,58.4,52.8,60.5,55.5,51.1,96,90,78,30.08,29.97,11,2,11,0.00
2014-2-17,63.2,57.7,53.4,58.2,54.2,50.4,93,88,81,30.09,30.01,12,3,13,0.00
2014-2-18,61.6,57.3,54.4,54.5,52.3,49.9,92,84,74,30.08,29.98,8,2,10,0.00
2014-2-19,62.2,57.1,53.0,55.8,53.2,50.2,95,87,76,30.03,29.91,8,2,10,0.00
2014-2-20,71.0,59.9,48.9,60.3,51.3,38.1,99,78,33,30.05,29.95,11,3,14,0.01
2014-2-21,66.2,60.0,53.7,60.2,54.0,40.6,94,81,46,30.00,29.89,9,2,10,0.00
2014-2-22,64.2,58.0,50.9,58.5,52.9,45.8,94,83,68,29.95,29.87,11,2,12,0.00
2014-2-23,63.9,57.3,47.7,58.3,53.5,46.2,97,87,77,30.02,29.92,10,3,11,0.00
2014-2-24,63.7,58.2,50.8,58.9,54.8,49.6,97,88,80,30.05,29.94,10,3,11,0.01
2014-2-25,64.2,58.9,52.8,56.1,53.1,49.4,89,81,73,30.07,29.98,7,3,10,0.00
2014-2-26,64.7,60.3,57.2,57.3,54.3,51.8,87,81,71,30.10,30.01,12,3,14,0.00
2014-2-27,65.2,60.5,56.9,62.1,57.9,53.5,98,91,80,30.05,29.87,17,5,20,0.36
2014-2-28,61.9,59.4,54.7,61.0,57.9,53.1,99,95,84,29.87,29.68,34,10,37,1.33
2014-3-1,63.3,57.8,52.9,58.1,54.8,51.0,95,90,80,29.98,29.77,18,5,23,0.68
2014-3-2,62.9,56.6,52.9,57.4,53.8,51.2,97,91,79,30.16,29.98,10,3,12,0.26
2014-3-3,62.4,57.2,52.3,57.8,54.6,50.8,97,91,82,30.15,30.03,14,4,15,0.00
2014-3-4,64.0,58.2,53.1,57.3,54.8,51.7,97,89,75,30.07,29.98,8,2,9,0.00
2014-3-5,63.2,57.7,51.8,59.9,56.1,51.0,99,94,85,30.10,30.01,13,3,14,0.01
2014-3-6,65.6,60.7,56.7,60.6,58.3,55.9,97,92,82,30.10,29.98,11,4,14,0.00
2014-3-7,66.1,61.0,57.5,60.4,56.9,51.2,97,87,70,30.02,29.92,10,2,11,0.00
2014-3-8,75.5,66.0,52.9,61.8,47.6,31.2,89,55,24,30.12,29.97,13,4,14,0.00
2014-3-9,82.0,72.6,64.6,48.4,33.5,23.6,49,24,14,30.15,30.05,14,4,17,0.00
2014-3-10,70.4,64.4,56.6,59.9,46.6,32.8,85,54,29,30.09,30.00,10,3,11,0.00
2014-3-11,66.3,60.0,52.7,60.0,55.0,48.6,92,84,73,30.01,29.92,9,3,10,0.00
2014-3-12,66.0,60.4,55.6,59.6,56.5,53.7,96,87,77,30.02,29.95,15,3,15,0.00
2014-3-13,65.4,60.1,55.1,55.1,53.4,50.6,90,79,65,30.03,29.93,12,3,13,0.00
2014-3-14,66.5,59.3,50.9,59.6,54.7,48.1,92,85,75,30.13,30.02,10,3,10,0.00
2014-3-15,69.6,61.6,53.7,61.8,56.3,43.3,98,84,39,30.21,30.11,12,3,13,0.01
2014-3-16,75.3,67.3,58.4,59.2,50.2,34.8,77,55,25,30.23,30.09,12,3,13,0.00
2014-3-17,66.9,61.7,57.0,60.8,55.2,40.1,92,80,45,30.09,29.81,17,3,17,0.00
2014-3-18,66.2,61.1,56.1,57.8,54.8,51.5,92,80,69,29.95,29.80,11,3,14,0.00
2014-3-19,66.2,59.7,53.1,59.7,56.0,51.3,96,88,76,30.06,29.94,9,2,9,0.00
2014-3-20,65.7,58.6,52.8,59.4,55.6,52.2,98,90,78,30.06,29.94,11,3,12,0.01
2014-3-21,65.5,60.1,56.7,54.4,52.8,50.8,89,78,63,30.04,29.96,9,2,11,0.00
2014-3-22,65.1,59.7,54.9,56.0,53.1,51.1,88,79,70,30.11,30.00,13,3,13,0.00
2014-3-23,64.6,58.2,52.4,56.9,53.8,49.8,92,86,72,30.15,30.04,14,4,15,0.00
2014-3-24,61.9,58.8,56.8,57.7,55.8,54.6,95,90,84,30.12,30.02,12,2,12,0.01
2014-3-25,63.5,58.9,56.5,58.4,55.9,54.1,96,90,78,30.05,29.91,10,2,12,0.01
2014-3-26,63.9,59.7,57.5,56.8,54.1,51.5,92,82,68,30.00,29.90,19,6,20,0.00
2014-3-27,63.5,58.8,54.4,54.9,52.8,50.9,90,81,69,30.11,29.99,15,4,17,0.00
2014-3-28,64.8,58.3,51.8,57.9,52.6,48.3,91,82,70,30.18,30.10,11,4,12,0.00
2014-3-29,65.2,58.9,52.4,59.0,54.8,49.9,93,86,73,30.16,29.99,11,3,13,0.00
2014-3-30,63.9,59.5,55.5,56.1,54.0,50.7,93,82,70,30.09,30.00,14,4,15,0.00
2014-3-31,64.4,56.9,50.6,56.2,51.2,46.3,92,81,71,30.07,30.00,18,5,19,0.00
2014-4-1,60.3,56.6,52.4,53.1,49.6,46.4,95,78,62,30.05,29.97,17,5,17,0.36
2014-4-2,59.2,54.5,48.9,50.6,48.2,45.7,95,80,65,30.09,29.95,22,5,26,0.07
2014-4-3,62.1,54.6,46.7,55.1,48.4,42.7,87,80,68,30.16,30.05,11,4,14,0.00
2014-4-4,61.4,56.0,51.7,53.7,51.2,48.0,94,84,67,30.07,29.97,12,3,14,0.00
2014-4-5,62.4,57.1,50.4,54.8,50.0,44.8,92,78,61,30.06,29.95,15,3,15,0.00
2014-4-6,68.5,59.6,50.4,55.7,49.5,43.2,79,69,57,30.10,30.02,14,3,14,0.00
2014-4-7,73.9,65.5,56.5,59.3,47.3,39.1,75,52,33,30.12,30.03,15,3,15,0.00
2014-4-8,74.8,65.4,57.7,59.8,51.7,39.3,86,62,33,30.11,29.99,9,2,12,0.00
2014-4-9,68.5,60.8,55.5,59.7,52.3,42.1,92,74,53,30.05,29.94,11,2,13,0.00
2014-4-10,59.7,54.6,47.3,56.9,52.5,46.5,98,93,77,30.01,29.91,10,1,10,0.00
2014-4-11,68.9,59.8,54.9,60.3,55.6,50.5,93,86,69,29.96,29.87,13,2,17,0.00
2014-4-12,64.5,59.4,57.0,55.6,52.9,50.0,92,79,68,29.99,29.89,13,4,13,0.00
2014-4-13,63.7,59.2,55.8,55.3,52.3,49.0,88,78,63,30.04,29.96,12,2,12,0.00
2014-4-14,65.6,59.2,53.4,59.3,55.1,50.5,94,86,78,30.06,29.98,13,3,16,0.00
2014-4-15,62.2,57.8,54.9,58.0,55.6,53.8,97,93,84,30.04,29.85,12,3,13,0.00
2014-4-16,64.6,59.6,56.3,57.5,55.0,52.8,92,85,74,29.90,29.81,13,4,14,0.00
2014-4-17,64.4,60.2,57.6,58.2,55.9,54.5,90,86,78,29.93,29.85,13,5,16,0.00
2014-4-18,68.2,62.1,58.2,60.4,56.7,54.2,90,83,73,29.95,29.86,12,3,13,0.00
2014-4-19,64.5,60.2,54.3,59.7,56.7,51.8,95,88,81,30.06,29.93,13,4,14,0.00
2014-4-20,67.0,61.8,57.7,61.4,58.3,55.7,95,89,79,30.08,30.00,9,2,10,0.00
2014-4-21,65.8,61.2,58.1,61.2,58.6,56.9,97,91,81,30.07,29.96,10,2,11,0.00
2014-4-22,66.6,61.6,56.6,59.7,56.1,52.8,88,82,74,30.00,29.91,13,3,14,0.00
2014-4-23,66.6,60.6,53.8,57.9,52.9,41.8,91,77,49,29.99,29.92,12,4,12,0.00
2014-4-24,69.3,62.6,54.8,60.5,56.0,49.3,89,79,69,30.01,29.92,9,3,10,0.00
2014-4-25,65.6,61.0,56.0,58.4,56.3,53.7,94,85,73,29.95,29.82,19,7,22,0.10
2014-4-26,61.2,57.4,52.8,55.4,50.7,46.4,96,78,66,30.02,29.80,35,10,36,0.01
2014-4-27,64.7,58.7,52.0,56.5,52.4,46.5,92,80,54,30.04,29.96,12,3,14,0.00
2014-4-28,68.2,60.9,53.9,59.6,54.2,49.5,93,79,54,30.03,29.90,14,3,16,0.00
2014-4-29,94.9,75.7,55.8,56.0,39.8,18.4,90,38,7,30.04,29.93,16,3,20,0.00
2014-4-30,91.8,80.5,67.3,47.1,20.9,8.8,46,12,5,30.02,29.89,24,4,29,0.00
2014-5-1,87.1,75.5,63.6,53.7,34.3,11.7,63,25,8,30.04,29.93,19,4,21,0.00
2014-5-2,85.4,70.3,59.5,61.6,43.8,31.7,70,40,19,30.00,29.89,10,1,11,0.00
2014-5-3,78.8,68.9,61.1,64.4,54.2,46.0,85,61,34,29.93,29.87,11,2,11,0.00
2014-5-4,69.3,62.8,57.6,62.6,57.6,53.1,90,83,70,30.00,29.91,11,3,11,0.00
2014-5-5,66.4,62.0,59.1,57.8,56.0,54.2,89,81,68,30.03,29.93,14,5,16,0.00
2014-5-6,62.6,59.2,56.9,55.6,52.2,49.1,87,78,63,29.93,29.86,22,5,23,0.00
2014-5-7,65.3,60.1,55.3,56.9,54.1,51.6,90,81,69,30.02,29.87,15,4,17,0.00
2014-5-8,66.3,60.9,57.0,56.5,52.9,50.5,87,75,61,30.08,29.99,14,4,16,0.00
2014-5-9,67.3,61.2,54.1,59.8,55.9,50.9,91,83,71,30.08,29.98,11,3,11,0.00
2014-5-10,69.0,62.4,58.4,60.0,56.8,54.1,89,82,71,29.98,29.83,12,4,15,0.00
2014-5-11,72.3,63.7,55.5,58.7,50.2,37.5,86,64,33,29.95,29.84,23,5,24,0.00
2014-5-12,81.8,72.3,59.5,56.2,40.6,27.4,76,34,15,30.02,29.93,17,3,18,0.00
2014-5-13,94.2,79.1,65.2,54.6,33.9,20.4,53,21,9,30.07,29.97,17,4,20,0.00
2014-5-14,94.8,80.4,71.6,54.7,33.8,15.2,44,21,6,30.04,29.94,13,2,18,0.00
2014-5-15,92.5,81.0,70.9,52.6,35.4,22.3,43,20,8,30.00,29.91,13,3,17,0.00
2014-5-16,82.7,73.2,65.4,66.3,50.9,31.9,92,50,24,29.97,29.88,9,2,10,0.00
2014-5-17,69.9,65.9,62.6,64.0,62.2,59.4,96,88,80,29.92,29.84,13,5,13,0.00
2014-5-18,70.1,65.0,61.9,61.9,59.3,58.0,88,82,71,29.90,29.85,16,5,17,0.00
2014-5-19,68.2,64.1,60.1,59.7,57.4,55.2,87,79,68,29.96,29.88,16,6,17,0.00
2014-5-20,66.4,62.7,59.5,57.7,55.3,52.6,88,77,67,30.03,29.94,14,5,18,0.00
2014-5-21,68.6,62.5,55.7,59.9,55.4,51.3,88,78,64,30.01,29.95,12,4,13,0.00
2014-5-22,67.2,63.0,61.3,58.6,56.8,55.6,86,80,72,30.03,29.93,10,3,10,0.00
2014-5-23,68.3,63.8,61.2,61.0,57.9,55.6,88,81,70,30.03,29.98,15,4,16,0.00
2014-5-24,66.8,63.1,60.4,60.0,58.7,57.6,92,86,77,30.03,29.95,9,2,9,0.00
2014-5-25,69.5,64.9,61.1,63.5,60.6,58.0,93,86,76,29.99,29.90,13,2,13,0.00
2014-5-26,71.1,67.0,64.1,64.1,62.1,60.6,91,84,75,29.99,29.92,9,2,9,0.00
2014-5-27,69.5,65.8,63.3,63.8,61.6,60.1,92,87,80,29.99,29.92,9,2,13,0.00
2014-5-28,69.8,65.1,62.6,62.6,60.8,59.3,92,86,73,29.95,29.84,11,4,12,0.00
2014-5-29,70.2,65.9,61.9,61.9,60.3,59.3,93,82,71,29.93,29.87,11,3,13,0.00
2014-5-30,71.0,65.6,60.3,65.0,61.7,58.5,96,87,72,29.92,29.84,10,2,11,0.00
2014-5-31,71.5,64.8,56.8,64.6,60.6,55.0,97,87,73,29.92,29.86,10,3,11,0.00
2014-6-1,71.3,65.6,60.7,64.3,61.4,58.9,96,86,74,29.90,29.82,13,3,13,0.01
2014-6-2,68.3,63.9,60.1,62.4,60.0,57.5,96,88,78,29.91,29.83,14,3,15,0.00
2014-6-3,71.3,64.8,58.3,64.3,59.9,56.4,95,85,73,29.92,29.81,13,3,15,0.00
2014-6-4,69.7,63.9,57.6,63.3,59.7,55.3,95,86,74,29.89,29.80,12,3,13,0.00
2014-6-5,69.2,64.6,61.0,63.2,60.3,57.5,95,86,77,29.87,29.80,11,3,12,0.00
2014-6-6,70.0,64.2,60.9,62.7,59.8,58.0,94,86,74,29.87,29.81,12,3,13,0.00
2014-6-7,69.3,64.6,61.6,61.5,59.0,57.1,89,82,72,29.86,29.79,10,2,11,0.00
2014-6-8,69.9,65.4,62.1,63.3,60.7,58.5,92,85,75,29.84,29.76,9,2,9,0.00
2014-6-9,69.0,64.0,61.7,64.2,61.3,60.1,96,91,82,29.84,29.77,10,2,11,0.00
2014-6-10,67.9,64.3,62.9,61.9,60.4,57.7,94,87,77,29.91,29.78,11,3,12,0.00
2014-6-11,71.3,65.9,62.7,63.4,59.6,57.1,89,80,69,29.93,29.88,12,3,13,0.00
2014-6-12,70.5,65.6,62.1,62.7,60.1,58.2,90,82,72,29.97,29.92,14,3,15,0.00
2014-6-13,69.7,65.3,61.2,61.4,59.0,56.7,89,80,70,29.96,29.89,9,2,10,0.00
2014-6-14,70.3,65.7,61.7,62.4,59.4,56.1,89,80,71,29.91,29.83,9,3,10,0.00
2014-6-15,69.5,65.7,62.2,62.4,60.0,58.4,90,82,72,29.89,29.84,11,3,11,0.00
2014-6-16,70.6,65.6,61.8,62.2,59.1,56.4,90,80,70,29.94,29.87,11,3,13,0.00
2014-6-17,68.7,64.7,60.5,61.4,59.2,56.8,91,82,74,29.97,29.88,13,4,14,0.00
2014-6-18,68.6,63.6,57.9,59.7,57.1,53.5,89,80,69,29.97,29.89,12,4,12,0.00
2014-6-19,70.1,64.8,57.7,63.6,60.1,54.6,93,85,75,29.98,29.90,10,3,11,0.00
2014-6-20,71.5,66.2,61.3,65.1,62.4,59.4,95,88,77,29.94,29.88,9,2,10,0.00
2014-6-21,69.7,65.8,63.0,64.7,62.3,60.6,94,89,80,29.92,29.85,13,4,13,0.00
2014-6-22,71.5,66.6,63.6,63.1,61.0,59.7,90,82,73,29.94,29.87,13,4,13,0.00
2014-6-23,70.9,66.3,61.6,63.0,60.6,58.3,90,82,72,29.96,29.88,10,2,11,0.00
2014-6-24,71.8,66.6,61.5,63.7,61.4,58.5,92,83,71,29.98,29.89,10,2,10,0.00
2014-6-25,72.4,67.3,64.3,63.9,62.2,60.8,90,84,71,29.94,29.85,9,3,10,0.00
2014-6-26,72.0,68.0,65.2,65.1,63.1,61.4,90,85,75,29.92,29.85,12,3,12,0.00
2014-6-27,72.3,68.0,64.8,65.2,63.0,61.6,91,84,74,29.90,29.83,14,5,14,0.00
2014-6-28,71.0,66.6,64.8,65.0,62.7,61.2,91,87,79,29.88,29.81,13,4,13,0.00
2014-6-29,70.8,67.0,64.5,65.3,63.3,61.8,92,88,80,29.90,29.85,10,4,12,0.00
2014-6-30,70.0,66.1,63.7,65.3,62.9,61.3,93,89,82,29.92,29.85,9,3,10,0.00
2014-7-1,72.1,66.9,63.6,66.6,63.7,61.2,94,90,79,29.90,29.82,10,3,11,0.00
2014-7-2,70.8,66.9,64.0,66.0,63.9,62.1,94,90,81,29.93,29.83,11,2,11,0.00
2014-7-3,73.1,68.1,64.1,67.5,64.5,62.3,95,89,78,29.94,29.84,12,3,13,0.00
2014-7-4,74.4,69.4,64.3,68.2,65.7,62.5,95,88,77,30.01,29.91,9,3,9,0.00
2014-7-5,76.9,70.9,65.2,70.4,66.9,63.4,95,88,75,30.05,29.98,9,2,10,0.00
2014-7-6,75.9,71.1,65.1,70.4,66.5,61.9,93,86,73,30.02,29.91,12,2,13,0.00
2014-7-7,75.9,70.2,64.5,70.0,66.5,62.4,95,88,77,29.93,29.85,11,3,11,0.00
2014-7-8,75.6,70.6,66.8,67.9,65.7,64.1,92,85,72,29.98,29.88,9,3,10,0.00
2014-7-9,75.1,70.4,66.9,67.7,65.0,63.0,89,83,73,29.98,29.89,8,2,11,0.00
2014-7-10,74.8,70.2,66.2,67.0,64.9,63.5,91,83,71,29.98,29.89,15,3,15,0.00
2014-7-11,73.8,69.0,65.5,66.2,64.1,62.6,92,85,73,30.01,29.94,14,3,15,0.00
2014-7-12,74.3,68.6,64.0,67.4,64.5,62.1,95,87,73,30.02,29.92,11,2,12,0.00
2014-7-13,72.0,68.5,64.5,67.6,65.1,62.6,95,89,81,29.94,29.87,15,4,15,0.00
2014-7-14,72.3,69.1,67.3,67.6,65.8,64.5,93,89,84,30.01,29.90,13,3,15,0.00
2014-7-15,70.7,68.3,67.1,66.9,65.0,62.8,95,89,82,30.06,29.98,10,2,10,0.00
2014-7-16,74.8,69.8,66.1,66.5,63.7,61.8,88,81,68,30.06,29.97,12,3,12,0.00
2014-7-17,74.0,68.5,62.6,65.3,62.9,60.0,93,83,71,30.05,29.98,15,4,15,0.00
2014-7-18,72.8,67.8,62.2,65.1,62.6,59.6,92,84,73,30.04,29.95,14,4,14,0.00
2014-7-19,72.9,67.0,63.7,65.9,63.2,60.8,91,88,76,29.99,29.92,7,2,9,0.00
2014-7-20,74.4,69.0,64.7,67.2,64.3,61.7,91,85,74,30.02,29.94,12,3,13,0.00
2014-7-21,73.5,68.5,64.0,66.9,64.2,61.4,93,86,73,30.08,29.98,16,4,18,0.00
2014-7-22,73.7,68.8,64.7,67.7,64.7,62.0,95,87,73,30.07,29.98,16,4,20,0.00
2014-7-23,76.1,69.8,64.1,68.1,64.3,60.2,91,83,66,30.01,29.88,13,3,15,0.00
2014-7-24,76.6,70.1,63.5,70.5,66.3,61.7,95,88,72,29.90,29.74,12,2,13,0.00
2014-7-25,75.9,71.2,67.9,69.9,67.5,65.7,94,88,79,29.92,29.83,17,5,17,0.00
2014-7-26,75.6,70.3,66.0,69.6,67.0,64.3,96,90,79,30.00,29.90,10,2,10,0.00
2014-7-27,74.8,70.0,67.0,69.5,67.0,65.6,96,90,80,30.04,29.92,14,2,15,0.00
2014-7-28,76.9,72.0,67.3,70.5,67.0,48.4,95,85,38,30.07,29.97,15,3,16,0.00
2014-7-29,73.5,69.7,65.7,69.3,65.8,60.8,94,88,81,30.04,29.94,10,2,12,0.00
2014-7-30,77.4,70.9,65.1,70.9,67.3,63.4,96,89,78,29.97,29.89,10,2,11,0.00
2014-7-31,75.0,70.1,65.8,70.0,66.4,62.6,95,88,79,29.94,29.85,12,3,14,0.00
2014-8-1,73.7,70.1,67.8,67.9,66.4,65.1,93,88,79,29.93,29.86,11,3,11,0.00
2014-8-2,72.9,69.9,68.1,69.0,67.4,66.0,95,92,86,29.97,29.87,10,2,10,0.00
2014-8-3,78.3,72.4,69.6,72.0,69.7,67.9,96,91,78,29.95,29.88,14,3,15,0.03
2014-8-4,77.7,71.5,64.9,71.9,68.4,63.1,96,90,80,30.01,29.92,11,3,14,0.00
2014-8-5,72.5,67.0,59.6,66.6,63.4,58.0,96,89,78,30.04,29.97,12,4,13,0.01
2014-8-6,71.7,67.0,63.3,64.7,62.1,60.1,93,85,74,30.07,29.96,13,3,14,0.00
2014-8-7,74.2,68.0,61.6,66.1,63.0,59.8,95,85,71,30.00,29.90,8,2,8,0.00
2014-8-8,75.5,69.8,66.7,66.5,64.4,62.5,91,83,70,29.96,29.89,9,2,9,0.00
2014-8-9,74.7,69.8,67.2,68.2,65.7,64.2,93,87,78,29.98,29.92,11,2,11,0.00
2014-8-10,75.4,69.1,64.4,68.7,65.8,63.2,97,89,77,30.00,29.91,9,2,10,0.00
2014-8-11,73.2,68.9,65.8,68.8,65.9,64.1,96,90,83,29.97,29.91,12,2,13,0.00
2014-8-12,73.3,68.2,64.9,68.2,65.4,63.5,96,91,80,29.99,29.91,12,3,16,0.00
2014-8-13,73.8,68.2,64.3,67.2,64.7,61.9,95,89,77,29.99,29.92,13,3,14,0.00
2014-8-14,73.9,67.8,63.0,67.0,63.9,60.9,95,88,77,29.98,29.91,10,3,11,0.00
2014-8-15,74.0,68.1,62.4,68.5,65.0,60.3,95,90,81,30.00,29.92,12,3,14,0.00
2014-8-16,74.9,69.4,65.1,69.1,65.2,60.8,94,87,62,30.02,29.91,16,3,18,0.00
2014-8-17,73.7,69.0,65.2,68.8,65.8,62.5,95,90,82,29.98,29.85,11,3,12,0.00
2014-8-18,75.4,69.6,64.5,69.2,65.9,62.7,96,88,79,29.89,29.80,12,3,12,0.00
2014-8-19,74.8,70.0,67.8,67.1,64.1,62.3,88,82,73,29.92,29.85,15,5,15,0.00
2014-8-20,75.6,70.3,64.9,66.8,64.0,61.1,90,81,71,29.95,29.88,11,4,11,0.00
2014-8-21,74.0,69.4,65.3,67.3,65.1,62.9,93,87,76,29.97,29.89,13,3,14,0.00
2014-8-22,75.3,69.9,65.2,68.9,66.2,62.8,96,88,77,29.99,29.92,9,2,11,0.00
2014-8-23,74.7,69.0,63.5,66.9,64.2,61.1,94,85,72,29.98,29.86,11,3,12,0.00
2014-8-24,74.3,68.4,63.0,66.1,63.6,60.6,94,85,71,29.92,29.83,11,3,12,0.00
2014-8-25,73.3,68.5,65.0,66.5,64.2,62.6,92,86,76,29.94,29.85,12,4,13,0.00
2014-8-26,73.3,68.2,63.2,67.7,64.2,60.0,91,87,79,29.99,29.93,13,3,13,0.00
2014-8-27,79.3,72.1,64.3,70.9,64.7,53.1,93,78,48,30.04,29.97,12,2,13,0.00
2014-8-28,78.0,73.2,68.4,69.5,63.3,54.6,83,71,54,30.00,29.88,17,2,18,0.00
2014-8-29,75.3,69.6,64.8,69.1,65.8,62.3,94,88,78,29.90,29.80,12,2,14,0.00
2014-8-30,75.7,70.1,65.6,69.8,66.6,63.8,95,89,76,29.85,29.74,7,2,9,0.00
2014-8-31,76.9,72.0,68.3,70.5,68.3,66.2,95,88,78,29.85,29.77,11,4,13,0.00
2014-9-1,75.7,71.3,67.1,68.3,66.3,64.3,91,84,75,29.84,29.77,14,5,14,0.00
2014-9-2,76.9,71.7,66.6,68.8,66.2,62.9,89,83,73,29.86,29.77,12,7,12,0.00
2014-9-3,75.8,72.2,69.1,67.8,66.2,64.4,90,82,74,29.81,29.71,11,3,11,0.00
2014-9-4,75.7,70.9,65.8,66.7,64.8,63.0,92,81,69,29.80,29.72,11,2,11,0.00
2014-9-5,74.5,69.2,64.1,68.9,65.4,61.5,94,88,78,29.90,29.80,14,4,15,0.00
2014-9-6,75.7,70.3,65.9,70.5,66.9,64.0,95,89,80,29.93,29.80,14,3,15,0.00
2014-9-7,79.3,72.8,66.8,72.6,68.1,62.6,92,85,72,29.83,29.74,10,2,11,0.00
2014-9-8,79.7,74.2,71.7,73.2,69.7,65.0,94,86,71,29.88,29.80,8,2,9,0.00
2014-9-9,79.1,73.3,68.1,72.8,68.8,64.4,94,86,75,29.93,29.85,9,2,10,0.00
2014-9-10,77.1,70.1,62.5,69.8,66.3,61.4,98,88,76,29.91,29.80,12,3,13,0.01
2014-9-11,78.3,72.7,66.5,72.4,67.2,61.6,92,83,62,29.87,29.78,14,3,15,0.00
2014-9-12,77.2,72.1,67.9,72.5,68.4,63.5,93,88,82,29.85,29.74,17,3,19,0.00
2014-9-13,78.5,72.6,67.1,72.6,68.2,64.1,92,86,73,29.79,29.68,13,3,17,0.00
2014-9-14,81.3,74.4,68.0,72.9,68.7,64.7,92,83,66,29.76,29.68,15,2,15,0.00
2014-9-15,81.4,76.0,70.2,73.2,68.5,65.2,90,78,59,29.80,29.72,16,3,17,0.00
2014-9-16,87.1,77.5,72.1,73.5,67.7,63.2,83,73,49,29.79,29.67,13,2,13,0.06
2014-9-17,81.2,75.6,71.1,72.1,67.5,63.3,87,76,62,29.80,29.70,15,2,17,0.00
2014-9-18,74.8,70.5,66.0,69.4,66.6,63.0,93,88,77,29.90,29.79,13,3,13,0.00
2014-9-19,74.9,70.5,67.0,68.1,65.6,63.7,93,85,72,29.92,29.83,9,2,11,0.00
2014-9-20,74.4,69.4,64.9,67.4,64.8,62.8,95,85,74,29.96,29.88,9,2,10,0.00
2014-9-21,75.0,69.4,65.4,66.7,63.8,61.3,91,83,69,30.00,29.92,14,3,14,0.00
2014-9-22,74.3,68.1,62.7,68.1,64.8,60.5,96,89,78,30.00,29.90,11,2,12,0.00
2014-9-23,73.2,67.7,62.9,68.9,65.2,60.9,97,92,83,29.99,29.88,12,3,13,0.01
2014-9-24,75.1,69.0,62.7,69.7,65.0,59.8,95,87,68,29.93,29.82,15,3,15,0.00
2014-9-25,76.0,71.4,66.7,70.0,65.4,60.4,93,82,69,29.93,29.85,15,3,16,0.00
2014-9-26,75.4,69.3,63.9,70.2,65.9,60.3,96,89,81,29.90,29.83,12,2,12,0.00
2014-9-27,74.2,67.1,62.2,65.5,61.7,58.9,91,83,72,29.91,29.81,13,4,14,0.00
2014-9-28,73.4,67.3,62.5,65.2,61.4,58.7,91,82,69,29.94,29.84,15,5,16,0.00
2014-9-29,72.5,66.4,60.5,66.4,61.5,57.3,92,84,75,29.95,29.84,16,4,19,0.00
2014-9-30,74.8,68.5,61.6,69.3,63.9,57.7,93,85,76,29.88,29.76,9,2,10,0.00
2014-10-1,73.3,68.7,64.6,67.3,64.8,61.9,94,87,77,29.87,29.75,10,2,11,0.00
2014-10-2,85.1,73.2,59.8,68.6,57.5,37.9,95,65,22,29.96,29.86,13,2,13,0.00
2014-10-3,88.2,78.3,67.9,57.6,43.8,32.3,56,30,16,30.02,29.91,11,3,14,0.00
2014-10-4,90.3,76.7,69.3,71.2,51.6,27.7,88,47,11,29.95,29.84,15,2,15,0.00
2014-10-5,77.9,70.8,63.7,69.3,62.6,50.7,89,76,50,29.92,29.83,11,2,12,0.00
2014-10-6,79.9,70.7,61.5,70.3,59.8,41.3,90,69,32,29.92,29.82,11,2,11,0.00
2014-10-7,82.0,72.2,63.9,70.5,64.7,52.8,93,79,39,29.91,29.81,13,2,13,0.00
2014-10-8,75.5,69.5,62.5,69.9,65.8,60.3,96,88,81,29.88,29.80,12,3,13,0.00
2014-10-9,74.0,69.0,64.6,64.5,62.6,59.8,91,80,70,29.95,29.88,12,4,13,0.00
2014-10-10,73.5,67.5,61.5,66.7,63.7,59.6,95,88,76,30.00,29.92,10,3,11,0.00
2014-10-11,73.2,68.2,64.7,67.2,64.3,61.7,94,88,77,30.00,29.90,11,2,12,0.00
2014-10-12,72.7,68.6,66.1,66.5,64.8,63.6,95,88,78,29.94,29.86,10,2,10,0.00
2014-10-13,72.3,68.1,64.7,67.0,64.7,62.8,94,89,80,30.03,29.93,7,2,8,0.00
2014-10-14,73.6,68.2,64.5,65.3,63.5,61.7,93,85,72,30.01,29.91,7,2,8,0.00
2014-10-15,74.2,69.0,64.7,63.9,61.5,59.8,87,77,63,30.01,29.94,14,3,14,0.00
2014-10-16,72.4,67.0,61.9,65.9,62.1,58.1,91,84,76,30.02,29.92,15,4,15,0.00
2014-10-17,73.3,67.5,62.6,65.4,62.1,59.3,91,83,72,29.99,29.92,15,3,15,0.00
2014-10-18,72.3,67.6,62.2,64.2,61.9,58.8,90,82,71,29.94,29.84,11,3,11,0.00
2014-10-19,72.8,66.9,60.6,65.9,62.7,58.0,93,87,77,29.92,29.83,11,4,11,0.00
2014-10-20,72.3,67.7,63.8,65.2,63.5,61.6,95,87,75,29.96,29.86,10,2,11,0.00
2014-10-21,72.2,66.9,62.5,66.5,63.3,60.3,94,88,78,29.93,29.84,11,3,11,0.00
2014-10-22,73.0,66.0,59.7,68.0,63.2,58.3,98,91,83,29.96,29.87,12,3,12,0.01
2014-10-23,74.4,67.5,60.7,68.9,63.6,57.8,94,87,79,30.01,29.91,9,2,9,0.00
2014-10-24,76.2,68.6,60.5,68.2,62.6,54.6,93,81,62,30.00,29.92,10,2,10,0.00
2014-10-25,72.2,67.8,63.0,66.4,62.9,58.1,92,84,78,30.06,29.97,15,4,15,0.00
2014-10-26,72.3,66.1,62.2,65.9,62.2,58.4,95,87,77,30.01,29.88,11,3,12,0.00
2014-10-27,71.2,65.0,58.3,64.2,59.8,54.6,91,84,75,29.96,29.88,13,3,13,0.00
2014-10-28,71.4,65.5,58.4,65.6,61.3,55.8,93,86,78,30.03,29.95,12,4,12,0.00
2014-10-29,73.5,67.1,59.9,67.8,62.6,57.3,94,86,74,30.04,29.95,12,3,12,0.00
2014-10-30,71.8,66.0,59.2,67.0,63.2,58.1,97,91,80,30.00,29.93,14,3,14,0.00
2014-10-31,69.5,65.5,61.2,62.8,61.0,58.8,95,86,75,29.98,29.85,15,4,17,0.00
2014-11-1,67.0,63.3,56.0,61.8,55.2,49.7,95,75,60,30.00,29.84,25,6,25,0.08
2014-11-2,66.8,59.5,53.7,57.2,53.0,50.8,93,80,60,30.07,29.99,11,4,11,0.06
2014-11-3,74.8,62.7,52.0,57.9,50.6,32.4,85,67,22,30.14,30.06,18,5,18,0.00
2014-11-4,74.8,65.7,56.2,55.9,40.9,24.6,60,42,24,30.20,30.08,18,4,18,0.00
2014-11-5,79.0,69.6,55.7,61.4,41.2,23.5,69,38,14,30.11,30.00,16,3,17,0.00
2014-11-6,81.6,72.8,55.8,62.7,41.7,21.9,70,34,12,30.15,30.05,14,3,15,0.00
2014-11-7,78.0,71.4,61.3,54.3,40.8,31.4,49,33,23,30.10,29.98,12,3,12,0.00
2014-11-8,77.7,68.9,60.7,64.1,51.7,36.3,95,58,29,30.05,29.95,13,2,13,0.00
2014-11-9,65.8,61.5,54.7,62.7,59.9,53.9,99,94,88,29.99,29.82,10,2,10,0.00
2014-11-10,67.5,63.4,60.1,59.3,57.4,55.1,88,81,72,29.90,29.83,12,3,12,0.00
2014-11-11,69.2,64.6,61.8,59.2,56.5,54.4,83,75,66,29.96,29.89,10,3,11,0.00
2014-11-12,68.3,63.3,57.3,59.6,56.9,53.3,88,80,70,30.04,29.94,13,3,13,0.00
2014-11-13,68.2,62.8,57.3,59.7,57.0,53.4,91,81,69,30.09,30.01,6,3,9,0.00
2014-11-14,68.7,63.1,59.3,63.4,60.2,58.1,96,90,80,30.05,29.97,8,3,10,0.10
2014-11-15,68.4,62.3,57.6,62.4,58.6,55.3,95,88,77,30.09,30.00,11,4,11,0.00
2014-11-16,76.2,64.7,56.7,61.8,36.4,3.3,95,51,9,30.16,30.02,12,3,12,0.00
2014-11-17,70.5,64.8,57.8,51.8,31.4,4.7,62,32,12,30.16,30.06,12,3,13,0.00
2014-11-18,70.5,63.2,53.9,54.5,42.1,18.8,75,49,19,30.17,30.07,12,3,13,0.00
2014-11-19,67.6,61.3,53.7,60.2,51.3,36.6,89,71,42,30.16,30.08,12,4,12,0.00
2014-11-20,67.5,61.1,54.3,60.3,54.8,44.6,93,80,63,30.13,29.98,15,4,15,0.00
2014-11-21,67.7,62.2,57.4,59.3,55.4,50.6,94,79,62,30.06,29.93,15,4,15,0.00
2014-11-22,66.8,61.3,53.4,61.7,55.6,47.9,91,82,68,30.13,30.01,12,4,12,0.00
2014-11-23,73.5,63.8,55.0,60.4,46.2,13.0,91,61,10,30.14,30.03,17,4,17,0.00
2014-11-24,72.5,64.9,53.8,59.4,34.0,17.1,73,35,15,30.31,30.12,13,3,13,0.00
2014-11-25,73.3,66.3,57.8,56.1,30.1,13.2,64,28,12,30.38,30.25,14,4,14,0.00
2014-11-26,75.0,65.6,55.7,60.2,42.5,27.8,72,44,25,30.25,30.11,13,3,13,0.00
2014-11-27,80.8,69.2,60.5,60.4,41.0,29.2,66,37,17,30.11,30.00,11,2,11,0.00
2014-11-28,74.8,65.2,57.9,56.8,44.0,30.6,75,47,30,30.00,29.88,10,2,11,0.00
2014-11-29,67.8,61.8,52.5,60.2,55.7,47.8,96,81,59,29.94,29.85,17,5,17,0.00
2014-11-30,66.5,64.2,61.5,62.5,60.1,55.6,93,86,76,30.10,29.89,19,7,20,0.00
2014-12-1,66.3,62.8,57.5,62.3,59.0,54.9,94,88,77,30.16,30.00,11,3,12,0.00
2014-12-2,66.9,61.8,58.3,60.4,57.0,54.3,96,85,65,30.00,29.89,26,6,26,0.77
2014-12-3,67.3,64.2,61.1,65.1,63.0,60.0,99,96,92,30.00,29.91,15,5,15,0.71
2014-12-4,66.7,63.0,58.6,64.2,61.3,57.3,100,94,82,30.08,29.93,13,3,15,0.20
2014-12-5,65.1,61.1,56.6,61.4,58.9,55.3,97,93,84,30.15,30.05,10,2,10,0.00
2014-12-6,66.8,62.1,57.7,63.0,59.6,55.6,98,92,83,30.22,30.14,12,3,12,0.00
2014-12-7,70.0,63.3,56.4,63.6,58.8,54.7,97,86,66,30.18,30.08,15,3,15,0.01
2014-12-8,69.4,63.3,57.9,61.4,57.8,52.8,94,82,66,30.11,30.02,14,4,14,0.00
2014-12-9,67.8,62.6,55.4,63.2,57.6,51.3,96,84,64,30.13,30.00,15,3,15,0.00
2014-12-10,65.4,61.2,55.3,60.6,58.3,52.4,95,90,78,30.05,29.95,12,2,12,0.00
2014-12-11,66.6,62.9,60.3,61.0,58.4,56.4,94,85,78,30.01,29.90,20,6,20,0.00
2014-12-12,64.2,58.2,53.8,59.3,55.7,52.1,99,92,76,30.08,29.85,30,7,33,1.17
2014-12-13,63.2,56.6,50.5,52.7,49.6,45.3,96,79,53,30.15,30.07,10,4,12,0.05
2014-12-14,63.3,56.3,48.8,55.0,49.2,43.4,91,77,62,30.15,30.06,12,4,12,0.00
2014-12-15,62.9,56.5,49.7,56.2,51.1,46.5,92,82,69,30.09,29.97,11,4,11,0.00
2014-12-16,61.2,57.9,55.5,55.3,52.6,49.6,90,83,75,30.04,29.96,19,5,20,0.05
2014-12-17,62.4,58.0,52.3,57.3,52.4,47.6,96,82,63,30.13,29.96,21,5,23,0.19
2014-12-18,62.7,56.8,52.0,54.7,51.8,48.4,92,84,71,30.22,30.11,11,4,11,0.00
2014-12-19,64.1,57.3,50.5,56.1,52.0,47.1,92,83,67,30.25,30.14,12,4,12,0.00
2014-12-20,62.6,57.2,50.4,57.1,53.7,46.8,94,88,79,30.21,30.12,12,4,12,0.00
2014-12-21,64.8,59.2,53.6,59.7,55.8,50.9,96,89,79,30.16,30.04,11,3,11,0.00
2014-12-22,65.0,59.5,52.9,61.6,57.2,50.6,97,92,82,30.07,29.95,11,3,12,0.00
2014-12-23,73.5,62.8,52.9,61.9,53.4,41.2,98,76,34,30.09,29.98,11,2,12,0.01
2014-12-24,69.5,63.5,57.5,60.2,50.2,40.0,93,64,40,30.08,29.82,14,3,14,0.00
2014-12-25,64.8,59.0,51.8,57.7,44.2,21.8,93,63,23,29.92,29.77,17,3,17,0.00
2014-12-26,62.7,55.6,50.4,34.1,24.5,17.0,42,30,22,30.20,29.91,13,2,13,0.00
2014-12-27,64.7,54.5,46.0,40.0,26.4,18.0,52,35,17,30.34,30.20,13,4,13,0.00
2014-12-28,60.6,52.5,44.3,45.7,35.7,25.6,69,53,35,30.30,30.17,11,5,13,0.00
2014-12-29,60.7,53.7,48.0,49.6,44.2,36.6,86,70,61,30.17,30.04,12,4,12,0.00
2014-12-30,58.0,53.5,42.4,50.2,45.2,37.3,88,74,52,30.05,29.87,22,6,22,0.09
2014-12-31,55.4,47.2,41.4,38.3,24.5,15.9,87,44,22,30.07,29.88,22,4,22,0.05
2015-1-1,57.7,49.4,42.3,43.2,34.6,23.2,78,57,43,30.17,30.06,13,5,14,0.00
2015-1-2,57.9,50.2,39.8,48.2,43.0,35.3,88,77,66,30.18,30.08,15,4,15,0.00